sensor_id;sensor_type;location;lat;lon;timestamp;temperature;humidity
70676;DHT22;59069;52.242;20.900;2023-04-03T00:01:55;2.45;62.75
70676;DHT22;59069;52.242;20.900;2023-04-03T00:04:21;2.44;62.83
70676;DHT22;59069;52.242;20.900;2023-04-03T00:06:46;2.40;62.88
70676;DHT22;59069;52.242;20.900;2023-04-03T00:09:12;2.34;62.77
70676;DHT22;59069;52.242;20.900;2023-04-03T00:11:38;2.29;62.71
70676;DHT22;59069;52.242;20.900;2023-04-03T00:14:03;2.27;62.77
70676;DHT22;59069;52.242;20.900;2023-04-03T00:16:29;2.20;62.76
70676;DHT22;59069;52.242;20.900;2023-04-03T00:18:55;2.19;62.93
70676;DHT22;59069;52.242;20.900;2023-04-03T00:21:20;2.13;62.90
70676;DHT22;59069;52.242;20.900;2023-04-03T00:23:46;2.09;62.95
70676;DHT22;59069;52.242;20.900;2023-04-03T00:26:12;2.06;63.03
70676;DHT22;59069;52.242;20.900;2023-04-03T00:28:37;2.03;63.27
70676;DHT22;59069;52.242;20.900;2023-04-03T00:31:03;1.99;63.28
70676;DHT22;59069;52.242;20.900;2023-04-03T00:33:29;1.92;63.48
70676;DHT22;59069;52.242;20.900;2023-04-03T00:35:54;1.87;63.52
70676;DHT22;59069;52.242;20.900;2023-04-03T00:38:20;1.83;63.56
70676;DHT22;59069;52.242;20.900;2023-04-03T00:40:48;1.80;63.45
70676;DHT22;59069;52.242;20.900;2023-04-03T00:43:19;1.76;63.81
70676;DHT22;59069;52.242;20.900;2023-04-03T00:45:50;1.72;63.83
70676;DHT22;59069;52.242;20.900;2023-04-03T00:48:32;1.69;63.76
70676;DHT22;59069;52.242;20.900;2023-04-03T00:50:58;1.68;63.78
70676;DHT22;59069;52.242;20.900;2023-04-03T00:53:31;1.63;63.62
70676;DHT22;59069;52.242;20.900;2023-04-03T00:55:58;1.61;63.59
70676;DHT22;59069;52.242;20.900;2023-04-03T00:58:34;1.59;63.54
70676;DHT22;59069;52.242;20.900;2023-04-03T01:01:04;1.54;63.32
70676;DHT22;59069;52.242;20.900;2023-04-03T01:03:31;1.49;63.33
70676;DHT22;59069;52.242;20.900;2023-04-03T01:05:57;1.47;63.34
70676;DHT22;59069;52.242;20.900;2023-04-03T01:08:23;1.45;63.28
70676;DHT22;59069;52.242;20.900;2023-04-03T01:10:49;1.42;63.25
70676;DHT22;59069;52.242;20.900;2023-04-03T01:13:32;1.40;63.27
70676;DHT22;59069;52.242;20.900;2023-04-03T01:16:02;1.35;63.30
70676;DHT22;59069;52.242;20.900;2023-04-03T01:18:28;1.32;63.33
70676;DHT22;59069;52.242;20.900;2023-04-03T01:23:45;1.27;63.43
70676;DHT22;59069;52.242;20.900;2023-04-03T01:26:12;1.24;63.40
70676;DHT22;59069;52.242;20.900;2023-04-03T01:28:37;1.20;63.49
70676;DHT22;59069;52.242;20.900;2023-04-03T01:33:53;1.14;63.68
70676;DHT22;59069;52.242;20.900;2023-04-03T01:36:24;1.11;63.62
70676;DHT22;59069;52.242;20.900;2023-04-03T01:38:52;1.11;63.68
70676;DHT22;59069;52.242;20.900;2023-04-03T01:41:18;1.07;63.80
70676;DHT22;59069;52.242;20.900;2023-04-03T01:43:44;1.03;63.81
70676;DHT22;59069;52.242;20.900;2023-04-03T01:46:09;1.03;63.76
70676;DHT22;59069;52.242;20.900;2023-04-03T01:48:35;0.97;63.78
70676;DHT22;59069;52.242;20.900;2023-04-03T01:51:01;0.96;63.87
70676;DHT22;59069;52.242;20.900;2023-04-03T01:53:26;0.93;63.75
70676;DHT22;59069;52.242;20.900;2023-04-03T01:55:52;0.91;64.00
70676;DHT22;59069;52.242;20.900;2023-04-03T01:58:17;0.89;64.08
70676;DHT22;59069;52.242;20.900;2023-04-03T02:00:43;0.87;64.01
70676;DHT22;59069;52.242;20.900;2023-04-03T02:03:08;0.86;64.21
70676;DHT22;59069;52.242;20.900;2023-04-03T02:05:34;0.83;64.17
70676;DHT22;59069;52.242;20.900;2023-04-03T02:08:00;0.81;64.29
70676;DHT22;59069;52.242;20.900;2023-04-03T02:10:26;0.79;64.24
70676;DHT22;59069;52.242;20.900;2023-04-03T02:12:52;0.75;64.41
70676;DHT22;59069;52.242;20.900;2023-04-03T02:15:17;0.72;64.50
70676;DHT22;59069;52.242;20.900;2023-04-03T02:17:43;0.73;64.44
70676;DHT22;59069;52.242;20.900;2023-04-03T02:20:10;0.70;64.57
70676;DHT22;59069;52.242;20.900;2023-04-03T02:22:35;0.70;64.69
70676;DHT22;59069;52.242;20.900;2023-04-03T02:25:01;0.69;64.60
70676;DHT22;59069;52.242;20.900;2023-04-03T02:27:27;0.66;64.71
70676;DHT22;59069;52.242;20.900;2023-04-03T02:29:52;0.63;64.72
70676;DHT22;59069;52.242;20.900;2023-04-03T02:32:18;0.62;64.61
70676;DHT22;59069;52.242;20.900;2023-04-03T02:34:43;0.59;64.89
70676;DHT22;59069;52.242;20.900;2023-04-03T02:37:09;0.55;64.94
70676;DHT22;59069;52.242;20.900;2023-04-03T02:39:34;0.52;64.88
70676;DHT22;59069;52.242;20.900;2023-04-03T02:42:00;0.52;64.89
70676;DHT22;59069;52.242;20.900;2023-04-03T02:44:26;0.50;65.08
70676;DHT22;59069;52.242;20.900;2023-04-03T02:46:51;0.49;65.13
70676;DHT22;59069;52.242;20.900;2023-04-03T02:49:17;0.44;65.14
70676;DHT22;59069;52.242;20.900;2023-04-03T02:51:43;0.44;65.32
70676;DHT22;59069;52.242;20.900;2023-04-03T02:54:08;0.38;65.45
70676;DHT22;59069;52.242;20.900;2023-04-03T02:56:34;0.36;65.61
70676;DHT22;59069;52.242;20.900;2023-04-03T02:58:59;0.36;65.70
70676;DHT22;59069;52.242;20.900;2023-04-03T03:01:25;0.35;65.55
70676;DHT22;59069;52.242;20.900;2023-04-03T03:03:53;0.33;65.77
70676;DHT22;59069;52.242;20.900;2023-04-03T03:06:19;0.29;65.84
70676;DHT22;59069;52.242;20.900;2023-04-03T03:08:45;0.26;65.82
70676;DHT22;59069;52.242;20.900;2023-04-03T03:11:11;0.24;65.98
70676;DHT22;59069;52.242;20.900;2023-04-03T03:13:36;0.21;66.20
70676;DHT22;59069;52.242;20.900;2023-04-03T03:16:02;0.18;66.25
70676;DHT22;59069;52.242;20.900;2023-04-03T03:18:28;0.15;66.38
70676;DHT22;59069;52.242;20.900;2023-04-03T03:20:55;0.14;66.37
70676;DHT22;59069;52.242;20.900;2023-04-03T03:23:23;0.09;66.30
70676;DHT22;59069;52.242;20.900;2023-04-03T03:25:54;0.05;66.68
70676;DHT22;59069;52.242;20.900;2023-04-03T03:28:20;0.04;66.61
70676;DHT22;59069;52.242;20.900;2023-04-03T03:30:46;0.02;66.82
70676;DHT22;59069;52.242;20.900;2023-04-03T03:33:12;0.01;66.70
70676;DHT22;59069;52.242;20.900;2023-04-03T03:35:37;-0.01;66.90
70676;DHT22;59069;52.242;20.900;2023-04-03T03:38:03;-0.03;67.00
70676;DHT22;59069;52.242;20.900;2023-04-03T03:40:28;-0.05;67.06
70676;DHT22;59069;52.242;20.900;2023-04-03T03:42:54;-0.07;67.20
70676;DHT22;59069;52.242;20.900;2023-04-03T03:45:19;-0.09;67.16
70676;DHT22;59069;52.242;20.900;2023-04-03T03:47:45;-0.10;67.25
70676;DHT22;59069;52.242;20.900;2023-04-03T03:50:10;-0.16;67.54
70676;DHT22;59069;52.242;20.900;2023-04-03T03:52:36;-0.19;67.68
70676;DHT22;59069;52.242;20.900;2023-04-03T03:55:02;-0.20;67.78
70676;DHT22;59069;52.242;20.900;2023-04-03T03:57:27;-0.23;67.99
70676;DHT22;59069;52.242;20.900;2023-04-03T03:59:54;-0.24;68.15
70676;DHT22;59069;52.242;20.900;2023-04-03T04:02:20;-0.26;68.29
70676;DHT22;59069;52.242;20.900;2023-04-03T04:04:45;-0.29;68.32
70676;DHT22;59069;52.242;20.900;2023-04-03T04:07:11;-0.34;68.49
70676;DHT22;59069;52.242;20.900;2023-04-03T04:09:37;-0.33;68.63
70676;DHT22;59069;52.242;20.900;2023-04-03T04:12:02;-0.36;68.74
70676;DHT22;59069;52.242;20.900;2023-04-03T04:14:28;-0.38;68.92
70676;DHT22;59069;52.242;20.900;2023-04-03T04:16:53;-0.38;68.92
70676;DHT22;59069;52.242;20.900;2023-04-03T04:19:19;-0.40;69.04
70676;DHT22;59069;52.242;20.900;2023-04-03T04:21:44;-0.44;69.16
70676;DHT22;59069;52.242;20.900;2023-04-03T04:24:10;-0.46;69.27
70676;DHT22;59069;52.242;20.900;2023-04-03T04:26:36;-0.43;69.45
70676;DHT22;59069;52.242;20.900;2023-04-03T04:29:02;-0.46;69.48
70676;DHT22;59069;52.242;20.900;2023-04-03T04:31:27;-0.46;69.56
70676;DHT22;59069;52.242;20.900;2023-04-03T04:33:53;-0.47;69.61
70676;DHT22;59069;52.242;20.900;2023-04-03T04:36:19;-0.47;69.64
70676;DHT22;59069;52.242;20.900;2023-04-03T04:38:44;-0.47;69.91
70676;DHT22;59069;52.242;20.900;2023-04-03T04:41:10;-0.46;69.94
70676;DHT22;59069;52.242;20.900;2023-04-03T04:43:36;-0.43;69.97
70676;DHT22;59069;52.242;20.900;2023-04-03T04:46:05;-0.38;70.08
70676;DHT22;59069;52.242;20.900;2023-04-03T04:48:31;-0.37;70.11
70676;DHT22;59069;52.242;20.900;2023-04-03T04:50:57;-0.32;70.17
70676;DHT22;59069;52.242;20.900;2023-04-03T04:53:22;-0.26;70.14
70676;DHT22;59069;52.242;20.900;2023-04-03T04:55:48;-0.17;70.11
70676;DHT22;59069;52.242;20.900;2023-04-03T04:58:13;-0.12;70.14
70676;DHT22;59069;52.242;20.900;2023-04-03T05:00:39;-0.07;69.74
70676;DHT22;59069;52.242;20.900;2023-04-03T05:03:05;-0.05;69.55
70676;DHT22;59069;52.242;20.900;2023-04-03T05:05:30;-0.05;69.51
70676;DHT22;59069;52.242;20.900;2023-04-03T05:07:56;0.07;69.38
70676;DHT22;59069;52.242;20.900;2023-04-03T05:10:21;0.11;69.24
70676;DHT22;59069;52.242;20.900;2023-04-03T05:12:47;0.17;69.13
70676;DHT22;59069;52.242;20.900;2023-04-03T05:15:12;0.25;68.80
70676;DHT22;59069;52.242;20.900;2023-04-03T05:17:38;0.26;68.49
70676;DHT22;59069;52.242;20.900;2023-04-03T05:20:04;0.32;68.36
70676;DHT22;59069;52.242;20.900;2023-04-03T05:22:30;0.42;68.18
70676;DHT22;59069;52.242;20.900;2023-04-03T05:24:56;0.48;68.02
70676;DHT22;59069;52.242;20.900;2023-04-03T05:27:22;0.53;67.69
70676;DHT22;59069;52.242;20.900;2023-04-03T05:29:49;0.60;67.60
70676;DHT22;59069;52.242;20.900;2023-04-03T05:32:15;0.67;66.99
70676;DHT22;59069;52.242;20.900;2023-04-03T05:34:41;0.67;66.50
70676;DHT22;59069;52.242;20.900;2023-04-03T05:37:07;0.65;65.38
70676;DHT22;59069;52.242;20.900;2023-04-03T05:39:32;0.63;65.08
70676;DHT22;59069;52.242;20.900;2023-04-03T05:41:59;0.58;65.45
70676;DHT22;59069;52.242;20.900;2023-04-03T05:44:25;0.62;65.97
70676;DHT22;59069;52.242;20.900;2023-04-03T05:46:50;0.66;65.66
70676;DHT22;59069;52.242;20.900;2023-04-03T05:49:16;0.65;65.35
70676;DHT22;59069;52.242;20.900;2023-04-03T05:51:41;0.70;65.43
70676;DHT22;59069;52.242;20.900;2023-04-03T05:54:19;0.73;65.43
70676;DHT22;59069;52.242;20.900;2023-04-03T05:56:48;0.75;65.09
70676;DHT22;59069;52.242;20.900;2023-04-03T05:59:14;0.72;64.78
70676;DHT22;59069;52.242;20.900;2023-04-03T06:01:39;0.81;65.43
70676;DHT22;59069;52.242;20.900;2023-04-03T06:04:05;0.89;65.83
70676;DHT22;59069;52.242;20.900;2023-04-03T06:09:08;1.24;65.49
70676;DHT22;59069;52.242;20.900;2023-04-03T06:11:34;1.37;65.14
70676;DHT22;59069;52.242;20.900;2023-04-03T06:14:00;1.49;64.70
70676;DHT22;59069;52.242;20.900;2023-04-03T06:16:26;1.49;63.47
70676;DHT22;59069;52.242;20.900;2023-04-03T06:18:51;1.51;63.27
70676;DHT22;59069;52.242;20.900;2023-04-03T06:21:17;1.55;63.76
70676;DHT22;59069;52.242;20.900;2023-04-03T06:23:42;1.63;63.97
70676;DHT22;59069;52.242;20.900;2023-04-03T06:26:08;1.78;64.50
70676;DHT22;59069;52.242;20.900;2023-04-03T06:28:33;1.93;63.98
70676;DHT22;59069;52.242;20.900;2023-04-03T06:30:59;2.05;63.36
70676;DHT22;59069;52.242;20.900;2023-04-03T06:33:25;2.07;61.81
70676;DHT22;59069;52.242;20.900;2023-04-03T06:35:58;2.16;63.59
70676;DHT22;59069;52.242;20.900;2023-04-03T06:38:24;2.27;61.37
70676;DHT22;59069;52.242;20.900;2023-04-03T06:40:50;2.29;61.43
70676;DHT22;59069;52.242;20.900;2023-04-03T06:43:17;2.45;63.27
70676;DHT22;59069;52.242;20.900;2023-04-03T06:45:43;2.65;62.62
70676;DHT22;59069;52.242;20.900;2023-04-03T06:48:08;2.82;62.17
70676;DHT22;59069;52.242;20.900;2023-04-03T06:50:34;2.99;60.67
70676;DHT22;59069;52.242;20.900;2023-04-03T06:53:00;3.25;61.56
70676;DHT22;59069;52.242;20.900;2023-04-03T06:55:26;3.44;60.24
70676;DHT22;59069;52.242;20.900;2023-04-03T06:57:52;3.54;59.88
70676;DHT22;59069;52.242;20.900;2023-04-03T07:00:18;3.63;58.69
70676;DHT22;59069;52.242;20.900;2023-04-03T07:02:44;3.59;56.92
70676;DHT22;59069;52.242;20.900;2023-04-03T07:05:09;3.53;55.64
70676;DHT22;59069;52.242;20.900;2023-04-03T07:07:35;3.59;58.61
70676;DHT22;59069;52.242;20.900;2023-04-03T07:10:01;3.77;57.29
70676;DHT22;59069;52.242;20.900;2023-04-03T07:12:26;3.97;58.02
70676;DHT22;59069;52.242;20.900;2023-04-03T07:14:52;4.35;58.76
70676;DHT22;59069;52.242;20.900;2023-04-03T07:17:18;4.63;55.88
70676;DHT22;59069;52.242;20.900;2023-04-03T07:19:43;4.83;55.26
70676;DHT22;59069;52.242;20.900;2023-04-03T07:22:09;5.08;54.85
70676;DHT22;59069;52.242;20.900;2023-04-03T07:24:36;5.27;52.85
70676;DHT22;59069;52.242;20.900;2023-04-03T07:27:02;5.44;53.14
70676;DHT22;59069;52.242;20.900;2023-04-03T07:29:28;5.65;52.02
70676;DHT22;59069;52.242;20.900;2023-04-03T07:31:53;5.79;47.91
70676;DHT22;59069;52.242;20.900;2023-04-03T07:34:20;5.65;48.46
70676;DHT22;59069;52.242;20.900;2023-04-03T07:36:46;5.66;50.63
70676;DHT22;59069;52.242;20.900;2023-04-03T07:39:11;5.68;48.92
70676;DHT22;59069;52.242;20.900;2023-04-03T07:41:37;5.65;47.12
70676;DHT22;59069;52.242;20.900;2023-04-03T07:44:03;5.71;50.01
70676;DHT22;59069;52.242;20.900;2023-04-03T07:46:31;5.90;50.10
70676;DHT22;59069;52.242;20.900;2023-04-03T07:48:56;6.17;50.07
70676;DHT22;59069;52.242;20.900;2023-04-03T07:51:22;6.31;47.74
70676;DHT22;59069;52.242;20.900;2023-04-03T07:53:49;6.57;48.05
70676;DHT22;59069;52.242;20.900;2023-04-03T07:56:14;6.78;45.58
70676;DHT22;59069;52.242;20.900;2023-04-03T07:58:40;6.91;45.44
70676;DHT22;59069;52.242;20.900;2023-04-03T08:01:06;6.93;44.32
70676;DHT22;59069;52.242;20.900;2023-04-03T08:03:31;6.93;43.86
70676;DHT22;59069;52.242;20.900;2023-04-03T08:06:03;6.75;42.95
70676;DHT22;59069;52.242;20.900;2023-04-03T08:08:29;6.67;42.80
70676;DHT22;59069;52.242;20.900;2023-04-03T08:10:57;6.70;43.70
70676;DHT22;59069;52.242;20.900;2023-04-03T08:13:24;6.98;44.57
70676;DHT22;59069;52.242;20.900;2023-04-03T08:15:50;7.42;44.46
70676;DHT22;59069;52.242;20.900;2023-04-03T08:18:16;7.99;47.40
70676;DHT22;59069;52.242;20.900;2023-04-03T08:20:42;9.01;48.83
70676;DHT22;59069;52.242;20.900;2023-04-03T08:23:08;10.12;48.60
70676;DHT22;59069;52.242;20.900;2023-04-03T08:25:40;11.29;45.45
70676;DHT22;59069;52.242;20.900;2023-04-03T08:28:06;12.38;39.54
70676;DHT22;59069;52.242;20.900;2023-04-03T08:30:32;13.65;36.38
70676;DHT22;59069;52.242;20.900;2023-04-03T08:33:00;14.87;31.99
70676;DHT22;59069;52.242;20.900;2023-04-03T08:35:26;15.28;26.84
70676;DHT22;59069;52.242;20.900;2023-04-03T08:37:52;14.79;28.14
70676;DHT22;59069;52.242;20.900;2023-04-03T08:40:18;14.53;27.42
70676;DHT22;59069;52.242;20.900;2023-04-03T08:50:41;13.65;28.83
70676;DHT22;59069;52.242;20.900;2023-04-03T08:53:14;14.14;27.20
70676;DHT22;59069;52.242;20.900;2023-04-03T08:55:47;14.43;24.16
70676;DHT22;59069;52.242;20.900;2023-04-03T08:58:16;13.68;20.73
70676;DHT22;59069;52.242;20.900;2023-04-03T09:00:49;14.02;28.24
70676;DHT22;59069;52.242;20.900;2023-04-03T09:03:18;14.84;27.66
70676;DHT22;59069;52.242;20.900;2023-04-03T09:05:51;14.55;21.05
70676;DHT22;59069;52.242;20.900;2023-04-03T09:08:29;14.15;26.68
70676;DHT22;59069;52.242;20.900;2023-04-03T09:14:08;14.04;21.49
70676;DHT22;59069;52.242;20.900;2023-04-03T09:19:12;12.66;21.83
70676;DHT22;59069;52.242;20.900;2023-04-03T09:21:41;12.28;27.98
70676;DHT22;59069;52.242;20.900;2023-04-03T09:24:10;12.86;30.11
70676;DHT22;59069;52.242;20.900;2023-04-03T09:29:12;13.43;24.69
70676;DHT22;59069;52.242;20.900;2023-04-03T09:31:43;13.06;21.44
70676;DHT22;59069;52.242;20.900;2023-04-03T09:34:34;12.59;26.33
70676;DHT22;59069;52.242;20.900;2023-04-03T09:37:02;13.53;30.63
70676;DHT22;59069;52.242;20.900;2023-04-03T09:39:51;13.37;20.35
70676;DHT22;59069;52.242;20.900;2023-04-03T09:42:20;12.24;21.26
70676;DHT22;59069;52.242;20.900;2023-04-03T09:45:04;12.44;26.98
70676;DHT22;59069;52.242;20.900;2023-04-03T09:47:35;12.27;22.74
70676;DHT22;59069;52.242;20.900;2023-04-03T09:52:44;11.50;26.24
70676;DHT22;59069;52.242;20.900;2023-04-03T09:55:21;11.95;31.73
70676;DHT22;59069;52.242;20.900;2023-04-03T09:57:52;12.48;30.21
70676;DHT22;59069;52.242;20.900;2023-04-03T10:00:26;12.92;25.63
70676;DHT22;59069;52.242;20.900;2023-04-03T10:02:54;12.45;25.10
70676;DHT22;59069;52.242;20.900;2023-04-03T10:05:35;11.70;23.27
70676;DHT22;59069;52.242;20.900;2023-04-03T10:08:23;11.21;24.59
70676;DHT22;59069;52.242;20.900;2023-04-03T10:13:35;10.56;27.52
70676;DHT22;59069;52.242;20.900;2023-04-03T10:16:10;10.68;30.63
70676;DHT22;59069;52.242;20.900;2023-04-03T10:27:09;14.08;29.45
70676;DHT22;59069;52.242;20.900;2023-04-03T10:32:30;14.94;22.23
70676;DHT22;59069;52.242;20.900;2023-04-03T10:35:10;14.47;21.15
70676;DHT22;59069;52.242;20.900;2023-04-03T10:43:17;11.59;29.85
70676;DHT22;59069;52.242;20.900;2023-04-03T10:45:55;12.55;27.70
70676;DHT22;59069;52.242;20.900;2023-04-03T10:51:27;12.88;23.93
70676;DHT22;59069;52.242;20.900;2023-04-03T10:56:47;11.39;27.55
70676;DHT22;59069;52.242;20.900;2023-04-03T11:01:56;12.54;27.82
70676;DHT22;59069;52.242;20.900;2023-04-03T11:04:27;13.46;26.72
70676;DHT22;59069;52.242;20.900;2023-04-03T11:07:02;13.91;24.14
70676;DHT22;59069;52.242;20.900;2023-04-03T11:09:35;14.26;23.34
70676;DHT22;59069;52.242;20.900;2023-04-03T11:12:12;14.96;27.25
70676;DHT22;59069;52.242;20.900;2023-04-03T11:14:39;14.70;19.89
70676;DHT22;59069;52.242;20.900;2023-04-03T11:17:14;13.89;20.05
70676;DHT22;59069;52.242;20.900;2023-04-03T11:22:31;13.57;25.72
70676;DHT22;59069;52.242;20.900;2023-04-03T11:27:47;11.84;22.62
70676;DHT22;59069;52.242;20.900;2023-04-03T11:33:23;11.05;33.65
70676;DHT22;59069;52.242;20.900;2023-04-03T11:35:57;12.71;35.41
70676;DHT22;59069;52.242;20.900;2023-04-03T11:38:28;14.46;27.06
70676;DHT22;59069;52.242;20.900;2023-04-03T11:40:57;15.48;20.52
70676;DHT22;59069;52.242;20.900;2023-04-03T11:43:28;17.12;26.08
70676;DHT22;59069;52.242;20.900;2023-04-03T11:46:05;18.14;19.31
70676;DHT22;59069;52.242;20.900;2023-04-03T11:51:02;15.28;17.53
70676;DHT22;59069;52.242;20.900;2023-04-03T11:53:46;14.09;24.19
70676;DHT22;59069;52.242;20.900;2023-04-03T12:04:10;15.14;24.56
70676;DHT22;59069;52.242;20.900;2023-04-03T12:09:23;16.34;23.47
70676;DHT22;59069;52.242;20.900;2023-04-03T12:11:51;15.68;18.24
70676;DHT22;59069;52.242;20.900;2023-04-03T12:14:17;14.96;19.86
70676;DHT22;59069;52.242;20.900;2023-04-03T12:16:46;13.98;20.29
70676;DHT22;59069;52.242;20.900;2023-04-03T12:37:57;16.43;25.46
70676;DHT22;59069;52.242;20.900;2023-04-03T12:43:38;16.64;16.80
70676;DHT22;59069;52.242;20.900;2023-04-03T12:48:46;13.12;19.96
70676;DHT22;59069;52.242;20.900;2023-04-03T12:51:19;13.57;27.83
70676;DHT22;59069;52.242;20.900;2023-04-03T12:53:45;13.67;26.29
70676;DHT22;59069;52.242;20.900;2023-04-03T12:56:26;13.33;24.36
70676;DHT22;59069;52.242;20.900;2023-04-03T12:58:54;14.79;24.44
70676;DHT22;59069;52.242;20.900;2023-04-03T13:01:26;14.87;22.02
70676;DHT22;59069;52.242;20.900;2023-04-03T13:03:56;14.33;20.00
70676;DHT22;59069;52.242;20.900;2023-04-03T13:06:39;13.30;21.00
70676;DHT22;59069;52.242;20.900;2023-04-03T13:09:14;12.48;22.24
70676;DHT22;59069;52.242;20.900;2023-04-03T13:11:43;11.47;23.30
70676;DHT22;59069;52.242;20.900;2023-04-03T13:14:20;10.64;24.53
70676;DHT22;59069;52.242;20.900;2023-04-03T13:16:57;9.90;26.02
70676;DHT22;59069;52.242;20.900;2023-04-03T13:19:25;9.30;26.58
70676;DHT22;59069;52.242;20.900;2023-04-03T13:22:05;8.94;27.47
70676;DHT22;59069;52.242;20.900;2023-04-03T13:24:34;9.48;38.34
70676;DHT22;59069;52.242;20.900;2023-04-03T13:27:02;12.01;39.27
70676;DHT22;59069;52.242;20.900;2023-04-03T13:29:31;12.41;24.46
70676;DHT22;59069;52.242;20.900;2023-04-03T13:31:58;12.35;26.44
70676;DHT22;59069;52.242;20.900;2023-04-03T13:34:27;11.87;23.51
70676;DHT22;59069;52.242;20.900;2023-04-03T13:39:25;10.32;25.27
70676;DHT22;59069;52.242;20.900;2023-04-03T13:41:54;10.14;27.99
70676;DHT22;59069;52.242;20.900;2023-04-03T13:46:49;15.51;30.38
70676;DHT22;59069;52.242;20.900;2023-04-03T13:49:30;15.24;19.80
70676;DHT22;59069;52.242;20.900;2023-04-03T13:51:56;14.37;19.16
70676;DHT22;59069;52.242;20.900;2023-04-03T13:54:37;14.19;23.96
70676;DHT22;59069;52.242;20.900;2023-04-03T13:57:14;14.56;21.75
70676;DHT22;59069;52.242;20.900;2023-04-03T13:59:40;13.44;20.14
70676;DHT22;59069;52.242;20.900;2023-04-03T14:02:14;12.16;21.60
70676;DHT22;59069;52.242;20.900;2023-04-03T14:07:05;10.23;24.70
70676;DHT22;59069;52.242;20.900;2023-04-03T14:09:31;9.58;26.00
70676;DHT22;59069;52.242;20.900;2023-04-03T14:12:05;9.04;27.15
70676;DHT22;59069;52.242;20.900;2023-04-03T14:14:34;8.65;27.71
70676;DHT22;59069;52.242;20.900;2023-04-03T14:17:02;8.39;28.44
70676;DHT22;59069;52.242;20.900;2023-04-03T14:19:32;8.14;28.97
70676;DHT22;59069;52.242;20.900;2023-04-03T14:21:59;7.94;29.33
70676;DHT22;59069;52.242;20.900;2023-04-03T14:24:25;7.73;29.78
70676;DHT22;59069;52.242;20.900;2023-04-03T14:26:53;7.54;30.14
70676;DHT22;59069;52.242;20.900;2023-04-03T14:29:20;7.39;30.54
70676;DHT22;59069;52.242;20.900;2023-04-03T14:31:47;7.22;31.02
70676;DHT22;59069;52.242;20.900;2023-04-03T14:34:14;7.11;31.44
70676;DHT22;59069;52.242;20.900;2023-04-03T14:36:41;7.06;31.76
70676;DHT22;59069;52.242;20.900;2023-04-03T14:39:11;7.03;31.99
70676;DHT22;59069;52.242;20.900;2023-04-03T14:41:37;7.05;32.21
70676;DHT22;59069;52.242;20.900;2023-04-03T14:44:02;7.01;32.54
70676;DHT22;59069;52.242;20.900;2023-04-03T14:46:34;6.93;32.89
70676;DHT22;59069;52.242;20.900;2023-04-03T14:49:00;6.81;33.06
70676;DHT22;59069;52.242;20.900;2023-04-03T14:51:26;6.72;33.51
70676;DHT22;59069;52.242;20.900;2023-04-03T14:53:51;6.61;33.76
70676;DHT22;59069;52.242;20.900;2023-04-03T14:56:27;6.50;34.06
70676;DHT22;59069;52.242;20.900;2023-04-03T14:58:59;6.44;34.50
70676;DHT22;59069;52.242;20.900;2023-04-03T15:01:26;6.38;34.61
70676;DHT22;59069;52.242;20.900;2023-04-03T15:03:52;6.37;34.79
70676;DHT22;59069;52.242;20.900;2023-04-03T15:06:18;6.33;35.13
70676;DHT22;59069;52.242;20.900;2023-04-03T15:08:45;6.60;35.18
70676;DHT22;59069;52.242;20.900;2023-04-03T15:11:12;7.16;35.72
70676;DHT22;59069;52.242;20.900;2023-04-03T15:13:38;7.03;34.29
70676;DHT22;59069;52.242;20.900;2023-04-03T15:16:05;6.91;34.13
70676;DHT22;59069;52.242;20.900;2023-04-03T15:18:36;6.77;33.97
70676;DHT22;59069;52.242;20.900;2023-04-03T15:21:03;6.60;33.95
70676;DHT22;59069;52.242;20.900;2023-04-03T15:23:28;6.48;34.26
70676;DHT22;59069;52.242;20.900;2023-04-03T15:25:55;6.33;34.74
70676;DHT22;59069;52.242;20.900;2023-04-03T15:28:34;6.26;35.08
70676;DHT22;59069;52.242;20.900;2023-04-03T15:31:00;6.17;35.50
70676;DHT22;59069;52.242;20.900;2023-04-03T15:33:27;6.13;35.89
70676;DHT22;59069;52.242;20.900;2023-04-03T15:35:52;6.20;36.27
70676;DHT22;59069;52.242;20.900;2023-04-03T15:38:18;6.24;36.39
70676;DHT22;59069;52.242;20.900;2023-04-03T15:40:44;6.29;36.54
70676;DHT22;59069;52.242;20.900;2023-04-03T15:43:12;6.29;36.45
70676;DHT22;59069;52.242;20.900;2023-04-03T15:45:38;6.27;36.44
70676;DHT22;59069;52.242;20.900;2023-04-03T15:48:05;6.20;36.47
70676;DHT22;59069;52.242;20.900;2023-04-03T15:50:32;6.12;36.71
70676;DHT22;59069;52.242;20.900;2023-04-03T15:52:58;6.06;37.00
70676;DHT22;59069;52.242;20.900;2023-04-03T15:55:26;5.98;36.82
70676;DHT22;59069;52.242;20.900;2023-04-03T15:57:52;5.90;37.07
70676;DHT22;59069;52.242;20.900;2023-04-03T16:00:19;5.82;37.29
70676;DHT22;59069;52.242;20.900;2023-04-03T16:02:46;5.78;37.30
70676;DHT22;59069;52.242;20.900;2023-04-03T16:05:13;5.69;37.44
70676;DHT22;59069;52.242;20.900;2023-04-03T16:07:40;5.65;37.67
70676;DHT22;59069;52.242;20.900;2023-04-03T16:10:08;5.59;37.75
70676;DHT22;59069;52.242;20.900;2023-04-03T16:12:35;5.51;37.80
70676;DHT22;59069;52.242;20.900;2023-04-03T16:15:01;5.44;37.99
70676;DHT22;59069;52.242;20.900;2023-04-03T16:17:27;5.39;38.06
70676;DHT22;59069;52.242;20.900;2023-04-03T16:19:54;5.34;38.15
70676;DHT22;59069;52.242;20.900;2023-04-03T16:22:21;5.32;38.28
70676;DHT22;59069;52.242;20.900;2023-04-03T16:24:48;5.34;38.38
70676;DHT22;59069;52.242;20.900;2023-04-03T16:27:15;5.34;38.38
70676;DHT22;59069;52.242;20.900;2023-04-03T16:29:40;5.34;38.54
70676;DHT22;59069;52.242;20.900;2023-04-03T16:32:06;5.32;38.57
70676;DHT22;59069;52.242;20.900;2023-04-03T16:34:32;5.30;38.64
70676;DHT22;59069;52.242;20.900;2023-04-03T16:36:58;5.28;38.72
70676;DHT22;59069;52.242;20.900;2023-04-03T16:39:23;5.24;38.59
70676;DHT22;59069;52.242;20.900;2023-04-03T16:41:49;5.18;38.34
70676;DHT22;59069;52.242;20.900;2023-04-03T16:44:15;5.08;38.35
70676;DHT22;59069;52.242;20.900;2023-04-03T16:46:42;5.07;38.51
70676;DHT22;59069;52.242;20.900;2023-04-03T16:49:07;5.04;38.61
70676;DHT22;59069;52.242;20.900;2023-04-03T16:51:33;5.03;38.76
70676;DHT22;59069;52.242;20.900;2023-04-03T16:53:59;4.98;39.10
70676;DHT22;59069;52.242;20.900;2023-04-03T16:56:25;4.93;39.58
70676;DHT22;59069;52.242;20.900;2023-04-03T16:58:52;4.93;39.89
70676;DHT22;59069;52.242;20.900;2023-04-03T17:01:19;4.90;40.17
70676;DHT22;59069;52.242;20.900;2023-04-03T17:03:45;4.83;40.38
70676;DHT22;59069;52.242;20.900;2023-04-03T17:06:14;4.80;40.52
70676;DHT22;59069;52.242;20.900;2023-04-03T17:08:45;4.79;40.57
70676;DHT22;59069;52.242;20.900;2023-04-03T17:11:11;4.79;40.79
70676;DHT22;59069;52.242;20.900;2023-04-03T17:13:37;4.77;40.84
70676;DHT22;59069;52.242;20.900;2023-04-03T17:16:05;4.76;40.94
70676;DHT22;59069;52.242;20.900;2023-04-03T17:18:33;4.77;41.05